Time;durP1;ratioP1;P1;durP2;ratioP2;P2;SDS_P1;SDS_P2;PMS_P1;PMS_P2;Temp;Humidity;BMP_temperature;BMP_pressure;BME280_temperature;BME280_humidity;BME280_pressure;Samples;Min_cycle;Max_cycle;Signal;HPM_P1;HPM_P2
2024/04/07 00:02:06;;;;;;;1.03;0.93;;;;;;;;;;6221121;22;20259;-92
2024/04/07 00:04:32;;;;;;;1.50;0.73;;;;;;;;;;6197577;22;20502;-92
2024/04/07 00:06:59;;;;;;;1.50;1.40;;;;;;;;;;6158628;23;20761;-92
2024/04/07 00:09:25;;;;;;;0.80;0.80;;;;;;;;;;6130258;23;20207;-91
2024/04/07 00:11:54;;;;;;;1.20;1.00;;;;;;;;;;6129774;23;20536;-92
2024/04/07 00:14:20;;;;;;;3.80;1.30;;;;;;;;;;6129984;23;20202;-92
2024/04/07 00:16:47;;;;;;;1.13;0.90;;;;;;;;;;6130742;23;20194;-91
2024/04/07 00:19:13;;;;;;;2.33;1.37;;;;;;;;;;6157820;23;20217;-91
2024/04/07 00:21:40;;;;;;;2.47;0.70;;;;;;;;;;6184747;23;20202;-92
2024/04/07 00:24:06;;;;;;;1.63;1.10;;;;;;;;;;6184076;23;20205;-91
2024/04/07 00:26:32;;;;;;;2.97;1.07;;;;;;;;;;6184468;23;20245;-91
2024/04/07 00:28:58;;;;;;;0.77;0.70;;;;;;;;;;6183067;23;20198;-91
2024/04/07 00:31:24;;;;;;;2.27;0.70;;;;;;;;;;6209177;23;20204;-92
2024/04/07 00:33:50;;;;;;;3.90;0.70;;;;;;;;;;6183509;23;20263;-91
2024/04/07 00:36:16;;;;;;;0.60;0.60;;;;;;;;;;6183305;23;20230;-91
2024/04/07 00:38:42;;;;;;;1.10;0.80;;;;;;;;;;6195636;22;20324;-91
2024/04/07 00:41:09;;;;;;;2.40;0.83;;;;;;;;;;6192739;22;20164;-92
2024/04/07 00:43:40;;;;;;;0.60;0.60;;;;;;;;;;6166224;23;20173;-91
2024/04/07 00:46:06;;;;;;;2.13;1.40;;;;;;;;;;6165964;23;20224;-92
2024/04/07 00:48:35;;;;;;;0.77;0.77;;;;;;;;;;6189734;23;20213;-92
2024/04/07 00:51:02;;;;;;;2.50;0.57;;;;;;;;;;6188466;23;20262;-91
2024/04/07 00:53:31;;;;;;;2.63;1.60;;;;;;;;;;6190121;23;20274;-92
2024/04/07 00:55:57;;;;;;;0.30;0.30;;;;;;;;;;6189190;23;20331;-92
2024/04/07 00:58:23;;;;;;;0.50;0.50;;;;;;;;;;6190519;23;20173;-91
2024/04/07 01:00:50;;;;;;;0.70;0.70;;;;;;;;;;6189938;23;20197;-91
2024/04/07 01:03:16;;;;;;;0.70;0.70;;;;;;;;;;6165316;23;20197;-91
2024/04/07 01:05:42;;;;;;;0.60;0.50;;;;;;;;;;6165109;23;20207;-92
2024/04/07 01:08:12;;;;;;;4.37;0.53;;;;;;;;;;6189768;23;20174;-91
2024/04/07 01:10:39;;;;;;;5.00;0.60;;;;;;;;;;6190174;23;20253;-92
2024/04/07 01:13:06;;;;;;;0.47;0.47;;;;;;;;;;6189651;23;20517;-91
2024/04/07 01:15:33;;;;;;;1.83;0.57;;;;;;;;;;6189364;23;20205;-91
2024/04/07 01:17:59;;;;;;;0.43;0.43;;;;;;;;;;6164904;23;20201;-91
2024/04/07 01:20:25;;;;;;;0.97;0.37;;;;;;;;;;6164990;23;20268;-91
2024/04/07 01:22:57;;;;;;;0.40;0.33;;;;;;;;;;6189901;23;20223;-92
2024/04/07 01:25:24;;;;;;;1.70;0.77;;;;;;;;;;6189324;23;20189;-92
2024/04/07 01:27:59;;;;;;;1.07;0.57;;;;;;;;;;6213530;22;20206;-92
2024/04/07 01:30:28;;;;;;;0.87;0.77;;;;;;;;;;6218935;22;20215;-91
2024/04/07 01:32:58;;;;;;;1.33;0.50;;;;;;;;;;6219847;22;20622;-91
2024/04/07 01:35:24;;;;;;;1.27;0.63;;;;;;;;;;6220060;22;20208;-91
2024/04/07 01:37:50;;;;;;;1.23;1.13;;;;;;;;;;6195574;22;20950;-92
2024/04/07 01:40:16;;;;;;;1.83;0.40;;;;;;;;;;6194793;22;20204;-91
2024/04/07 01:42:43;;;;;;;0.40;0.40;;;;;;;;;;6219530;22;20761;-91
2024/04/07 01:45:12;;;;;;;0.30;0.30;;;;;;;;;;6197515;22;20505;-91
2024/04/07 01:47:38;;;;;;;0.40;0.40;;;;;;;;;;6222141;22;20667;-91
2024/04/07 01:50:05;;;;;;;0.60;0.37;;;;;;;;;;6196400;22;20172;-92
2024/04/07 01:52:31;;;;;;;1.93;0.53;;;;;;;;;;6222415;22;20164;-91
2024/04/07 01:55:00;;;;;;;0.30;0.30;;;;;;;;;;6221613;22;20200;-90
2024/04/07 01:57:27;;;;;;;1.07;1.00;;;;;;;;;;6196419;22;20555;-92
2024/04/07 01:59:53;;;;;;;1.00;0.23;;;;;;;;;;6221692;22;20781;-90
2024/04/07 02:02:19;;;;;;;2.57;1.00;;;;;;;;;;6196696;22;20207;-93
2024/04/07 02:04:49;;;;;;;2.67;1.17;;;;;;;;;;6197470;22;20183;-92
2024/04/07 02:07:17;;;;;;;0.10;0.10;;;;;;;;;;6196189;22;20200;-92
2024/04/07 02:09:43;;;;;;;1.03;0.20;;;;;;;;;;6221274;22;20205;-90
2024/04/07 02:12:09;;;;;;;1.80;0.43;;;;;;;;;;6221685;22;20703;-90
2024/04/07 02:14:35;;;;;;;4.60;0.77;;;;;;;;;;6221398;22;20208;-90
2024/04/07 02:17:02;;;;;;;3.43;0.60;;;;;;;;;;6221526;22;20203;-90
2024/04/07 02:19:28;;;;;;;0.30;0.30;;;;;;;;;;6222542;22;20171;-90
2024/04/07 02:21:54;;;;;;;0.30;0.30;;;;;;;;;;6190795;23;20201;-92
2024/04/07 02:24:27;;;;;;;0.97;0.43;;;;;;;;;;6208854;22;20254;-92
2024/04/07 02:26:53;;;;;;;0.40;0.40;;;;;;;;;;6196138;22;20872;-93
2024/04/07 02:29:19;;;;;;;0.30;0.30;;;;;;;;;;6196984;22;20286;-91
2024/04/07 02:31:45;;;;;;;0.37;0.30;;;;;;;;;;6198220;22;20229;-93
2024/04/07 02:34:12;;;;;;;0.30;0.30;;;;;;;;;;6196897;22;20208;-90
2024/04/07 02:36:38;;;;;;;0.43;0.43;;;;;;;;;;6197265;22;20215;-92
2024/04/07 02:39:09;;;;;;;0.20;0.20;;;;;;;;;;6196610;22;20196;-92
2024/04/07 02:41:35;;;;;;;0.47;0.47;;;;;;;;;;6197236;22;20200;-91
2024/04/07 02:44:01;;;;;;;3.00;0.50;;;;;;;;;;6195973;22;20169;-92
2024/04/07 02:49:13;;;;;;;0.20;0.20;;;;;;;;;;6225917;22;20239;-91
2024/04/07 02:51:39;;;;;;;0.50;0.50;;;;;;;;;;6197462;22;20208;-94
2024/04/07 02:54:06;;;;;;;0.97;0.97;;;;;;;;;;6222815;22;20751;-93
2024/04/07 02:56:32;;;;;;;0.10;0.10;;;;;;;;;;6197161;22;20212;-91
2024/04/07 02:58:58;;;;;;;0.63;0.30;;;;;;;;;;6197782;22;20180;-92
2024/04/07 03:01:24;;;;;;;0.33;0.33;;;;;;;;;;6198292;22;20173;-92
2024/04/07 03:03:50;;;;;;;2.10;0.33;;;;;;;;;;6197115;22;20212;-93
2024/04/07 03:06:17;;;;;;;5.93;0.60;;;;;;;;;;6196488;22;20287;-91
2024/04/07 03:08:43;;;;;;;4.07;0.40;;;;;;;;;;6191036;23;20193;-91
2024/04/07 03:11:09;;;;;;;0.10;0.10;;;;;;;;;;6194330;22;20218;-91
2024/04/07 03:13:36;;;;;;;0.20;0.20;;;;;;;;;;6197443;22;20173;-91
2024/04/07 03:16:09;;;;;;;0.53;0.53;;;;;;;;;;6196117;22;20204;-91
2024/04/07 03:18:35;;;;;;;0.30;0.30;;;;;;;;;;6221375;22;20204;-91
2024/04/07 03:21:04;;;;;;;0.30;0.30;;;;;;;;;;6196737;22;20224;-92
2024/04/07 03:23:33;;;;;;;0.23;0.23;;;;;;;;;;6196648;22;20258;-91
2024/04/07 03:25:59;;;;;;;0.40;0.40;;;;;;;;;;6195961;22;20173;-91
2024/04/07 03:28:25;;;;;;;2.27;0.57;;;;;;;;;;6191316;23;20241;-92
2024/04/07 03:30:52;;;;;;;0.40;0.40;;;;;;;;;;6216863;23;20212;-92
2024/04/07 03:33:18;;;;;;;2.17;0.53;;;;;;;;;;6184666;23;20249;-92
2024/04/07 03:35:47;;;;;;;0.93;0.13;;;;;;;;;;6190942;23;20201;-92
2024/04/07 03:38:13;;;;;;;1.27;0.37;;;;;;;;;;6154260;23;20184;-91
2024/04/07 03:40:40;;;;;;;0.23;0.23;;;;;;;;;;6131106;23;20218;-92
2024/04/07 03:43:07;;;;;;;1.00;0.30;;;;;;;;;;6129945;23;20214;-92
2024/04/07 03:45:33;;;;;;;0.30;0.30;;;;;;;;;;6131171;23;20248;-91
2024/04/07 03:48:00;;;;;;;0.70;0.40;;;;;;;;;;6180267;23;20198;-92
2024/04/07 03:50:26;;;;;;;0.20;0.20;;;;;;;;;;6180381;23;20568;-91
2024/04/07 03:52:52;;;;;;;0.17;0.17;;;;;;;;;;6181492;23;20266;-91
2024/04/07 03:55:18;;;;;;;0.20;0.20;;;;;;;;;;6131372;23;20210;-93
2024/04/07 03:57:44;;;;;;;0.27;0.27;;;;;;;;;;6180486;23;20214;-93
2024/04/07 04:00:11;;;;;;;0.50;0.20;;;;;;;;;;6179438;23;20226;-91
2024/04/07 04:02:37;;;;;;;0.30;0.30;;;;;;;;;;6179956;23;20198;-92
2024/04/07 04:05:03;;;;;;;0.37;0.20;;;;;;;;;;6130435;23;20218;-92
2024/04/07 04:07:30;;;;;;;2.63;0.60;;;;;;;;;;6131012;23;20241;-93
2024/04/07 04:09:58;;;;;;;0.13;0.13;;;;;;;;;;6210581;23;20205;-91
2024/04/07 04:12:24;;;;;;;0.83;0.80;;;;;;;;;;6215667;23;20205;-94
2024/04/07 04:14:51;;;;;;;0.30;0.30;;;;;;;;;;6215359;23;20267;-91
2024/04/07 04:17:17;;;;;;;0.20;0.20;;;;;;;;;;6189919;22;20205;-92
2024/04/07 04:19:44;;;;;;;0.43;0.43;;;;;;;;;;6191204;23;20223;-92
2024/04/07 04:22:10;;;;;;;1.70;0.30;;;;;;;;;;6186440;23;20201;-91
2024/04/07 04:24:36;;;;;;;0.60;0.40;;;;;;;;;;6191464;23;20239;-91
2024/04/07 04:27:03;;;;;;;0.37;0.37;;;;;;;;;;6215844;23;20204;-92
2024/04/07 04:29:36;;;;;;;2.33;0.97;;;;;;;;;;6185820;23;20221;-91
2024/04/07 04:32:03;;;;;;;1.23;0.60;;;;;;;;;;6186427;22;20173;-92
2024/04/07 04:34:32;;;;;;;0.80;0.70;;;;;;;;;;6216669;23;20270;-90
2024/04/07 04:36:59;;;;;;;0.73;0.43;;;;;;;;;;6215820;23;20293;-90
2024/04/07 04:39:25;;;;;;;0.40;0.40;;;;;;;;;;6215253;23;20205;-92
2024/04/07 04:41:51;;;;;;;0.33;0.33;;;;;;;;;;6215211;23;20205;-90
2024/04/07 04:44:18;;;;;;;0.30;0.30;;;;;;;;;;6190730;22;20197;-90
2024/04/07 04:46:49;;;;;;;0.57;0.57;;;;;;;;;;6214741;23;20181;-91
2024/04/07 04:49:18;;;;;;;0.43;0.23;;;;;;;;;;6215356;23;20260;-91
2024/04/07 04:51:46;;;;;;;0.87;0.50;;;;;;;;;;6185497;23;20229;-91
2024/04/07 04:54:12;;;;;;;0.60;0.60;;;;;;;;;;6216019;23;20205;-91
2024/04/07 04:56:39;;;;;;;1.83;0.60;;;;;;;;;;6185539;23;20213;-91
2024/04/07 04:59:05;;;;;;;0.30;0.30;;;;;;;;;;6187644;22;20181;-91
2024/04/07 05:01:31;;;;;;;3.07;0.37;;;;;;;;;;6190987;23;20174;-92
2024/04/07 05:03:58;;;;;;;1.10;1.10;;;;;;;;;;6215084;23;20207;-91
2024/04/07 05:06:30;;;;;;;0.57;0.57;;;;;;;;;;6214749;23;20231;-91
2024/04/07 05:08:56;;;;;;;3.07;0.40;;;;;;;;;;6215213;23;20267;-91
2024/04/07 05:11:23;;;;;;;0.40;0.40;;;;;;;;;;6215359;23;20731;-91
2024/04/07 05:13:49;;;;;;;1.37;0.60;;;;;;;;;;6215711;23;20165;-91
2024/04/07 05:16:15;;;;;;;0.40;0.40;;;;;;;;;;6185309;23;20214;-91
2024/04/07 05:18:41;;;;;;;0.30;0.30;;;;;;;;;;6216775;23;20284;-91
2024/04/07 05:21:12;;;;;;;0.30;0.30;;;;;;;;;;6215058;23;20205;-91
2024/04/07 05:23:40;;;;;;;6.23;1.00;;;;;;;;;;6215726;23;20276;-91
2024/04/07 05:26:13;;;;;;;2.43;0.83;;;;;;;;;;6178879;22;20174;-92
2024/04/07 05:28:39;;;;;;;0.60;0.60;;;;;;;;;;6216781;23;20201;-91
2024/04/07 05:31:11;;;;;;;5.40;0.67;;;;;;;;;;6175885;23;20216;-92
2024/04/07 05:33:43;;;;;;;6.43;0.60;;;;;;;;;;6207983;23;20237;-91
2024/04/07 05:36:10;;;;;;;0.70;0.60;;;;;;;;;;6184473;23;20221;-90
2024/04/07 05:38:38;;;;;;;1.70;0.67;;;;;;;;;;6193747;23;20205;-91
2024/04/07 05:41:04;;;;;;;0.67;0.67;;;;;;;;;;6215222;22;20626;-91
2024/04/07 05:43:34;;;;;;;0.73;0.73;;;;;;;;;;6191321;23;20217;-92
2024/04/07 05:46:04;;;;;;;0.17;0.13;;;;;;;;;;6184979;23;20655;-92
2024/04/07 05:48:30;;;;;;;0.13;0.13;;;;;;;;;;6205656;23;20592;-91
2024/04/07 05:50:57;;;;;;;0.20;0.20;;;;;;;;;;6214678;23;20209;-91
2024/04/07 05:53:23;;;;;;;0.73;0.50;;;;;;;;;;6184304;23;20233;-91
2024/04/07 05:55:49;;;;;;;0.37;0.30;;;;;;;;;;6185928;23;20194;-92
2024/04/07 05:58:15;;;;;;;1.20;1.10;;;;;;;;;;6214596;23;20201;-91
2024/04/07 06:00:42;;;;;;;2.20;0.50;;;;;;;;;;6185219;23;20699;-90
2024/04/07 06:03:11;;;;;;;0.20;0.20;;;;;;;;;;6199784;23;20201;-91
2024/04/07 06:05:38;;;;;;;1.27;1.17;;;;;;;;;;6215219;23;20201;-92
2024/04/07 06:08:05;;;;;;;1.87;0.40;;;;;;;;;;6189932;22;20281;-90
2024/04/07 06:10:31;;;;;;;0.33;0.33;;;;;;;;;;6216604;23;20311;-90
2024/04/07 06:12:57;;;;;;;1.17;0.70;;;;;;;;;;6184324;23;20212;-90
2024/04/07 06:15:23;;;;;;;0.30;0.30;;;;;;;;;;6189224;23;20547;-91
2024/04/07 06:17:50;;;;;;;0.87;0.87;;;;;;;;;;6214025;23;20213;-90
2024/04/07 06:20:16;;;;;;;0.67;0.57;;;;;;;;;;6190042;22;20276;-91
2024/04/07 06:22:43;;;;;;;0.50;0.50;;;;;;;;;;6215300;23;20192;-90
2024/04/07 06:25:10;;;;;;;1.37;1.27;;;;;;;;;;6185171;23;20728;-90
2024/04/07 06:27:36;;;;;;;1.03;1.03;;;;;;;;;;6205444;23;20355;-91
2024/04/07 06:30:04;;;;;;;2.07;1.17;;;;;;;;;;6214746;23;20228;-91
2024/04/07 06:32:30;;;;;;;1.23;0.80;;;;;;;;;;6216830;23;20530;-92
2024/04/07 06:34:57;;;;;;;0.40;0.40;;;;;;;;;;6216939;22;20173;-90
2024/04/07 06:37:23;;;;;;;4.47;0.90;;;;;;;;;;6217414;23;20229;-92
2024/04/07 06:39:49;;;;;;;2.20;0.80;;;;;;;;;;6186679;23;20237;-91
2024/04/07 06:42:23;;;;;;;0.70;0.60;;;;;;;;;;6203877;23;20869;-90
2024/04/07 06:44:49;;;;;;;7.83;0.97;;;;;;;;;;6216283;23;20223;-91
2024/04/07 06:47:15;;;;;;;2.67;1.07;;;;;;;;;;6191630;22;20534;-91
2024/04/07 06:49:41;;;;;;;1.27;0.70;;;;;;;;;;6192399;23;20486;-92
2024/04/07 06:52:08;;;;;;;0.77;0.77;;;;;;;;;;6215826;23;20209;-90
2024/04/07 06:54:37;;;;;;;1.43;0.70;;;;;;;;;;6215751;23;20275;-89
2024/04/07 06:57:04;;;;;;;2.23;1.17;;;;;;;;;;6190753;23;20217;-92
2024/04/07 06:59:30;;;;;;;2.53;0.77;;;;;;;;;;6190802;23;20294;-91
2024/04/07 07:01:56;;;;;;;2.17;0.60;;;;;;;;;;6191027;22;20178;-91
2024/04/07 07:04:25;;;;;;;3.00;0.73;;;;;;;;;;6192629;23;20165;-92
2024/04/07 07:06:54;;;;;;;1.33;0.50;;;;;;;;;;6192343;23;20205;-92
2024/04/07 07:09:26;;;;;;;0.57;0.57;;;;;;;;;;6215996;23;20197;-92
2024/04/07 07:11:55;;;;;;;2.83;0.70;;;;;;;;;;6215256;23;20209;-91
2024/04/07 07:14:21;;;;;;;2.47;1.07;;;;;;;;;;6215048;23;20994;-93
2024/04/07 07:16:47;;;;;;;13.13;1.00;;;;;;;;;;6216045;23;20255;-92
2024/04/07 07:19:13;;;;;;;4.55;1.13;;;;;;;;;;6193436;23;20205;-91
2024/04/07 07:21:40;;;;;;;2.95;0.60;;;;;;;;;;6191693;23;20205;-93
2024/04/07 07:24:06;;;;;;;1.70;1.00;;;;;;;;;;6191113;23;20228;-92
2024/04/07 07:26:38;;;;;;;0.50;0.50;;;;;;;;;;6215992;23;20200;-92
2024/04/07 07:29:04;;;;;;;5.53;0.93;;;;;;;;;;6217899;22;20200;-92
2024/04/07 07:31:31;;;;;;;4.47;1.10;;;;;;;;;;6167323;23;20207;-93
2024/04/07 07:33:57;;;;;;;3.08;0.77;;;;;;;;;;6166684;23;20205;-92
2024/04/07 07:36:23;;;;;;;3.42;1.67;;;;;;;;;;6167641;23;20217;-93
2024/04/07 07:38:50;;;;;;;5.22;1.25;;;;;;;;;;6166153;23;20255;-93
2024/04/07 07:41:18;;;;;;;0.93;0.70;;;;;;;;;;6165978;23;20231;-92
2024/04/07 07:43:45;;;;;;;6.53;0.93;;;;;;;;;;6192039;23;20173;-92
2024/04/07 07:46:11;;;;;;;1.83;1.08;;;;;;;;;;6166262;23;20204;-90
2024/04/07 07:48:39;;;;;;;2.15;0.60;;;;;;;;;;6165666;23;20207;-91
2024/04/07 07:51:12;;;;;;;0.98;0.85;;;;;;;;;;6166685;23;20525;-92
2024/04/07 07:53:39;;;;;;;3.50;1.23;;;;;;;;;;6190765;23;20205;-92
2024/04/07 07:56:05;;;;;;;0.95;0.85;;;;;;;;;;6189298;23;20197;-92
2024/04/07 07:58:33;;;;;;;1.65;1.17;;;;;;;;;;6166344;23;20476;-91
2024/04/07 08:00:59;;;;;;;2.25;1.02;;;;;;;;;;6191071;23;20228;-92
2024/04/07 08:03:28;;;;;;;0.60;0.60;;;;;;;;;;6168228;23;20204;-92
2024/04/07 08:05:54;;;;;;;1.60;0.73;;;;;;;;;;6190340;23;20620;-91
2024/04/07 08:08:21;;;;;;;2.95;0.68;;;;;;;;;;6165298;23;20276;-91
2024/04/07 08:10:47;;;;;;;5.03;1.08;;;;;;;;;;6191001;23;20681;-91
2024/04/07 08:13:14;;;;;;;2.53;0.70;;;;;;;;;;6190796;23;20220;-92
2024/04/07 08:15:43;;;;;;;1.23;1.00;;;;;;;;;;6164648;23;20231;-92
2024/04/07 08:18:13;;;;;;;1.65;0.60;;;;;;;;;;6190677;23;20201;-93
2024/04/07 08:20:39;;;;;;;1.33;0.80;;;;;;;;;;6198878;22;20212;-92
2024/04/07 08:23:06;;;;;;;2.75;0.75;;;;;;;;;;6220055;22;20175;-91
2024/04/07 08:25:33;;;;;;;1.40;1.13;;;;;;;;;;6220675;22;20259;-92
2024/04/07 08:27:59;;;;;;;2.88;0.85;;;;;;;;;;6195271;22;20212;-92
2024/04/07 08:30:27;;;;;;;4.20;1.20;;;;;;;;;;6219902;22;20212;-93
2024/04/07 08:32:54;;;;;;;1.23;0.73;;;;;;;;;;6219080;22;20216;-92
2024/04/07 08:35:20;;;;;;;0.77;0.60;;;;;;;;;;6195157;22;20223;-90
2024/04/07 08:37:46;;;;;;;1.27;0.60;;;;;;;;;;6195698;22;20283;-92
2024/04/07 08:40:13;;;;;;;3.63;0.85;;;;;;;;;;6196672;22;20672;-92
2024/04/07 08:42:42;;;;;;;6.18;0.90;;;;;;;;;;6221980;22;20203;-92
2024/04/07 08:45:08;;;;;;;2.20;0.80;;;;;;;;;;6222842;22;20200;-93
2024/04/07 08:47:36;;;;;;;1.77;0.55;;;;;;;;;;6240811;22;20205;-92
2024/04/07 08:50:03;;;;;;;1.10;0.60;;;;;;;;;;6234563;22;20257;-93
2024/04/07 08:52:29;;;;;;;4.22;1.10;;;;;;;;;;6221293;22;20196;-92
2024/04/07 08:54:55;;;;;;;2.20;1.00;;;;;;;;;;6220176;22;20204;-91
2024/04/07 08:57:22;;;;;;;4.07;1.23;;;;;;;;;;6220546;22;20212;-92
2024/04/07 08:59:51;;;;;;;5.50;0.63;;;;;;;;;;6220281;22;20208;-93
2024/04/07 09:02:18;;;;;;;3.55;1.15;;;;;;;;;;6188713;22;20271;-92
2024/04/07 09:04:45;;;;;;;1.15;1.08;;;;;;;;;;6237564;22;20230;-93
2024/04/07 09:07:11;;;;;;;1.65;0.80;;;;;;;;;;6221900;22;20168;-93
2024/04/07 09:09:38;;;;;;;0.98;0.88;;;;;;;;;;6221223;22;20726;-92
2024/04/07 09:12:07;;;;;;;2.33;0.80;;;;;;;;;;6197552;22;20204;-92
2024/04/07 09:14:34;;;;;;;5.40;1.25;;;;;;;;;;6221081;22;20541;-92
2024/04/07 09:17:07;;;;;;;5.35;1.02;;;;;;;;;;6221257;22;20212;-92
2024/04/07 09:19:34;;;;;;;3.63;1.30;;;;;;;;;;6222135;22;20345;-92
2024/04/07 09:22:00;;;;;;;2.00;0.93;;;;;;;;;;6246609;22;20652;-92
2024/04/07 09:24:27;;;;;;;3.50;1.10;;;;;;;;;;6220925;22;20214;-92
2024/04/07 09:26:56;;;;;;;4.03;1.33;;;;;;;;;;6196122;22;21162;-92
2024/04/07 09:29:22;;;;;;;3.33;0.88;;;;;;;;;;6215289;23;20235;-92
2024/04/07 09:31:52;;;;;;;3.60;1.00;;;;;;;;;;6215870;22;20209;-92
2024/04/07 09:34:18;;;;;;;6.45;0.82;;;;;;;;;;6192233;23;20184;-92
2024/04/07 09:36:44;;;;;;;2.30;1.38;;;;;;;;;;6214754;23;20264;-92
2024/04/07 09:39:11;;;;;;;3.22;1.02;;;;;;;;;;6190273;23;20566;-93
2024/04/07 09:41:37;;;;;;;5.25;1.15;;;;;;;;;;6215451;23;20201;-93
2024/04/07 09:44:09;;;;;;;2.97;0.70;;;;;;;;;;6215595;22;20259;-92
2024/04/07 09:46:39;;;;;;;1.40;0.80;;;;;;;;;;6216060;23;20177;-92
2024/04/07 09:49:08;;;;;;;2.75;1.00;;;;;;;;;;6216449;23;20185;-93
2024/04/07 09:51:44;;;;;;;1.80;0.88;;;;;;;;;;6217341;23;20213;-92
2024/04/07 09:54:23;;;;;;;2.25;1.05;;;;;;;;;;6215654;23;20654;-92
2024/04/07 09:56:49;;;;;;;1.60;0.80;;;;;;;;;;6215079;23;20216;-93
2024/04/07 09:59:15;;;;;;;1.48;1.38;;;;;;;;;;6215595;23;20215;-93
2024/04/07 10:01:41;;;;;;;2.17;1.17;;;;;;;;;;6191025;22;20177;-91
2024/04/07 10:04:08;;;;;;;0.88;0.50;;;;;;;;;;6216464;23;20215;-93
2024/04/07 10:06:35;;;;;;;5.05;0.85;;;;;;;;;;6218207;23;20239;-93
2024/04/07 10:09:02;;;;;;;3.67;1.55;;;;;;;;;;6217293;23;20243;-93
2024/04/07 10:11:28;;;;;;;2.42;0.90;;;;;;;;;;6186930;23;20205;-93
2024/04/07 10:13:54;;;;;;;5.82;1.50;;;;;;;;;;6189470;22;20178;-93
2024/04/07 10:16:23;;;;;;;1.23;1.08;;;;;;;;;;6192873;23;20243;-92
2024/04/07 10:18:52;;;;;;;4.40;1.95;;;;;;;;;;6206411;22;20260;-92
2024/04/07 10:21:18;;;;;;;2.78;0.88;;;;;;;;;;6215112;23;20201;-93
2024/04/07 10:23:44;;;;;;;3.65;0.73;;;;;;;;;;6186676;23;20546;-93
2024/04/07 10:26:11;;;;;;;0.60;0.60;;;;;;;;;;6191974;23;20717;-91
2024/04/07 10:28:53;;;;;;;6.32;0.73;;;;;;;;;;6217739;23;20887;-93
2024/04/07 10:31:23;;;;;;;1.58;0.80;;;;;;;;;;6187790;23;20205;-93
2024/04/07 10:33:50;;;;;;;2.75;0.98;;;;;;;;;;6163405;23;20274;-94
2024/04/07 10:36:18;;;;;;;1.17;0.80;;;;;;;;;;6187832;23;20210;-93
2024/04/07 10:38:46;;;;;;;0.77;0.57;;;;;;;;;;6161946;23;20669;-93
2024/04/07 10:41:16;;;;;;;3.00;1.45;;;;;;;;;;6187138;23;20201;-92
2024/04/07 10:43:44;;;;;;;1.95;1.10;;;;;;;;;;6187417;23;20624;-92
2024/04/07 10:46:10;;;;;;;1.25;1.08;;;;;;;;;;6187691;23;20611;-92
2024/04/07 10:48:36;;;;;;;1.20;0.82;;;;;;;;;;6153177;23;20400;-92
2024/04/07 10:51:03;;;;;;;4.13;0.80;;;;;;;;;;6162495;23;20228;-92
2024/04/07 10:53:30;;;;;;;3.27;1.03;;;;;;;;;;6186910;23;20205;-92
2024/04/07 10:56:01;;;;;;;1.60;1.35;;;;;;;;;;6186451;23;20170;-91
2024/04/07 10:58:30;;;;;;;3.20;1.33;;;;;;;;;;6187912;23;20184;-92
2024/04/07 11:00:56;;;;;;;2.80;1.10;;;;;;;;;;6155028;23;20220;-93
2024/04/07 11:03:23;;;;;;;6.03;1.30;;;;;;;;;;6092805;23;20214;-92
2024/04/07 11:05:53;;;;;;;0.93;0.90;;;;;;;;;;6131045;23;20584;-92
2024/04/07 11:08:22;;;;;;;1.23;0.90;;;;;;;;;;6131581;23;20265;-92
2024/04/07 11:10:52;;;;;;;1.73;1.05;;;;;;;;;;6179771;23;20171;-92
2024/04/07 11:13:19;;;;;;;6.70;1.52;;;;;;;;;;6131223;23;20174;-93
2024/04/07 11:15:54;;;;;;;3.13;0.90;;;;;;;;;;6130229;23;20202;-93
2024/04/07 11:18:21;;;;;;;1.20;0.80;;;;;;;;;;6117904;23;20257;-93
2024/04/07 11:20:48;;;;;;;2.47;1.00;;;;;;;;;;6130509;23;20290;-94
2024/04/07 11:23:15;;;;;;;1.67;0.85;;;;;;;;;;6129962;23;20206;-94
2024/04/07 11:25:42;;;;;;;0.70;0.70;;;;;;;;;;6129661;23;20793;-90
2024/04/07 11:28:11;;;;;;;1.43;1.33;;;;;;;;;;6131053;23;20171;-92
2024/04/07 11:30:55;;;;;;;2.20;0.77;;;;;;;;;;6124257;23;20214;-92
2024/04/07 11:33:21;;;;;;;6.28;1.00;;;;;;;;;;6186070;23;20213;-94
2024/04/07 11:35:48;;;;;;;3.63;0.82;;;;;;;;;;6201346;23;20200;-92
2024/04/07 11:38:14;;;;;;;3.08;0.95;;;;;;;;;;6191463;23;20203;-93
2024/04/07 11:40:40;;;;;;;1.70;1.00;;;;;;;;;;6217547;23;20169;-93
2024/04/07 11:43:07;;;;;;;4.65;0.88;;;;;;;;;;6216947;23;20521;-91
2024/04/07 11:45:33;;;;;;;3.03;1.10;;;;;;;;;;6217007;23;20197;-91
2024/04/07 11:48:00;;;;;;;1.90;0.80;;;;;;;;;;6216039;23;20272;-92
2024/04/07 11:50:28;;;;;;;0.65;0.65;;;;;;;;;;6216476;23;20204;-92
2024/04/07 11:52:56;;;;;;;4.73;1.30;;;;;;;;;;6191432;22;20210;-92
2024/04/07 11:55:22;;;;;;;3.30;0.68;;;;;;;;;;6192388;23;20173;-91
2024/04/07 11:57:48;;;;;;;1.10;0.82;;;;;;;;;;6215618;23;20591;-89
2024/04/07 12:00:15;;;;;;;0.57;0.57;;;;;;;;;;6191480;23;20281;-90
2024/04/07 12:02:44;;;;;;;6.43;1.02;;;;;;;;;;6181039;22;20208;-90
2024/04/07 12:05:12;;;;;;;5.10;1.23;;;;;;;;;;6190406;22;20225;-90
2024/04/07 12:07:38;;;;;;;2.83;0.90;;;;;;;;;;6191824;23;20169;-90
2024/04/07 12:10:05;;;;;;;1.33;0.70;;;;;;;;;;6215480;23;20575;-90
2024/04/07 12:12:31;;;;;;;0.83;0.73;;;;;;;;;;6216164;23;20278;-90
2024/04/07 12:14:59;;;;;;;0.50;0.50;;;;;;;;;;6216377;23;20279;-89
2024/04/07 12:17:25;;;;;;;1.10;1.00;;;;;;;;;;6206068;22;20208;-90
2024/04/07 12:19:51;;;;;;;6.43;1.43;;;;;;;;;;6191279;22;20176;-90
2024/04/07 12:22:18;;;;;;;0.80;0.80;;;;;;;;;;6216140;23;20169;-90
2024/04/07 12:24:45;;;;;;;3.70;0.87;;;;;;;;;;6215514;23;20213;-90
2024/04/07 12:27:11;;;;;;;2.03;1.08;;;;;;;;;;6216279;23;20212;-90
2024/04/07 12:29:39;;;;;;;4.83;1.03;;;;;;;;;;6190053;23;20205;-90
2024/04/07 12:32:08;;;;;;;3.20;0.87;;;;;;;;;;6215442;23;20240;-89
2024/04/07 12:34:35;;;;;;;1.57;1.23;;;;;;;;;;6216354;23;20549;-90
2024/04/07 12:37:01;;;;;;;2.23;1.23;;;;;;;;;;6195792;23;20548;-90
2024/04/07 12:39:30;;;;;;;0.80;0.63;;;;;;;;;;6185475;23;20498;-89
2024/04/07 12:41:56;;;;;;;1.17;0.73;;;;;;;;;;6161290;23;20198;-90
2024/04/07 12:44:22;;;;;;;1.87;0.63;;;;;;;;;;6125669;23;20217;-91
2024/04/07 12:46:48;;;;;;;9.83;1.27;;;;;;;;;;6125446;23;20182;-90
2024/04/07 12:49:20;;;;;;;1.40;0.60;;;;;;;;;;6101997;23;20510;-90
2024/04/07 12:51:46;;;;;;;2.23;1.27;;;;;;;;;;6100656;23;20782;-90
2024/04/07 12:54:16;;;;;;;2.77;0.70;;;;;;;;;;6100443;23;20231;-90
2024/04/07 12:56:42;;;;;;;0.50;0.50;;;;;;;;;;6099911;23;20215;-89
2024/04/07 12:59:09;;;;;;;1.70;1.23;;;;;;;;;;6125615;23;20269;-90
2024/04/07 13:01:35;;;;;;;0.57;0.40;;;;;;;;;;6100708;23;20182;-90
2024/04/07 13:04:05;;;;;;;0.40;0.40;;;;;;;;;;6088116;23;20252;-90
2024/04/07 13:06:31;;;;;;;0.73;0.70;;;;;;;;;;6101508;23;20214;-90
2024/04/07 13:08:57;;;;;;;1.93;1.37;;;;;;;;;;6126352;23;20212;-91
2024/04/07 13:11:26;;;;;;;1.80;0.40;;;;;;;;;;6105071;23;20793;-90
2024/04/07 13:13:52;;;;;;;1.83;0.63;;;;;;;;;;6129772;23;20175;-90
2024/04/07 13:16:19;;;;;;;1.50;0.80;;;;;;;;;;6206482;23;20300;-90
2024/04/07 13:18:45;;;;;;;0.40;0.40;;;;;;;;;;6189571;23;20248;-90
2024/04/07 13:21:11;;;;;;;4.83;0.90;;;;;;;;;;6191387;23;20549;-90
2024/04/07 13:23:40;;;;;;;4.10;1.23;;;;;;;;;;6191124;23;20200;-90
2024/04/07 13:26:06;;;;;;;1.03;0.93;;;;;;;;;;6192056;23;20197;-89
2024/04/07 13:28:32;;;;;;;0.40;0.40;;;;;;;;;;6191488;23;20898;-90
2024/04/07 13:30:59;;;;;;;0.93;0.50;;;;;;;;;;6191736;23;20272;-90
2024/04/07 13:33:25;;;;;;;0.87;0.67;;;;;;;;;;6191281;23;20255;-90
2024/04/07 13:35:51;;;;;;;1.50;0.83;;;;;;;;;;6190668;23;20717;-91
2024/04/07 13:38:24;;;;;;;1.47;1.37;;;;;;;;;;6192187;23;20197;-90
2024/04/07 13:40:56;;;;;;;0.77;0.77;;;;;;;;;;6190728;22;20169;-90
2024/04/07 13:43:22;;;;;;;1.07;0.53;;;;;;;;;;6191417;23;20176;-91
2024/04/07 13:45:48;;;;;;;1.27;1.17;;;;;;;;;;6190923;23;20201;-90
2024/04/07 13:48:15;;;;;;;1.77;0.60;;;;;;;;;;6190106;23;20540;-89
2024/04/07 13:50:41;;;;;;;0.50;0.50;;;;;;;;;;6190498;23;20193;-90
2024/04/07 13:53:09;;;;;;;1.70;0.47;;;;;;;;;;6189684;23;20221;-90
2024/04/07 13:55:36;;;;;;;0.47;0.47;;;;;;;;;;6216262;23;20173;-90
2024/04/07 13:58:02;;;;;;;3.13;0.60;;;;;;;;;;6216071;23;20213;-91
2024/04/07 14:00:28;;;;;;;3.30;0.93;;;;;;;;;;6190918;23;20254;-90
2024/04/07 14:02:54;;;;;;;0.47;0.40;;;;;;;;;;6175600;23;20216;-90
2024/04/07 14:05:20;;;;;;;0.50;0.50;;;;;;;;;;6190634;23;20271;-90
2024/04/07 14:07:46;;;;;;;3.70;0.40;;;;;;;;;;6190879;22;20733;-89
2024/04/07 14:10:13;;;;;;;1.83;0.77;;;;;;;;;;6190900;23;20180;-89
2024/04/07 14:12:39;;;;;;;1.83;0.60;;;;;;;;;;6189679;23;20213;-91
2024/04/07 14:15:05;;;;;;;0.60;0.60;;;;;;;;;;6190291;23;21108;-89
2024/04/07 14:17:32;;;;;;;2.00;0.60;;;;;;;;;;6214916;23;20213;-89
2024/04/07 14:20:01;;;;;;;0.60;0.60;;;;;;;;;;6190206;22;20501;-90
2024/04/07 14:22:27;;;;;;;1.80;0.50;;;;;;;;;;6190729;23;20170;-90
2024/04/07 14:24:53;;;;;;;0.63;0.60;;;;;;;;;;6190089;23;20212;-90
2024/04/07 14:27:19;;;;;;;0.47;0.47;;;;;;;;;;6215381;23;20205;-90
2024/04/07 14:29:45;;;;;;;1.30;0.70;;;;;;;;;;6190654;23;20205;-91
2024/04/07 14:32:11;;;;;;;0.40;0.40;;;;;;;;;;6190197;23;20193;-91
2024/04/07 14:34:37;;;;;;;0.27;0.27;;;;;;;;;;6191237;23;20267;-90
2024/04/07 14:37:04;;;;;;;1.90;0.87;;;;;;;;;;6190615;23;20582;-90
2024/04/07 14:39:30;;;;;;;0.73;0.60;;;;;;;;;;6189115;23;20214;-90
2024/04/07 14:41:56;;;;;;;1.07;0.93;;;;;;;;;;6190220;23;20267;-90
2024/04/07 14:44:23;;;;;;;1.00;1.00;;;;;;;;;;6190466;23;20201;-91
2024/04/07 14:46:52;;;;;;;1.13;0.53;;;;;;;;;;6190563;22;20177;-90